Etusivu
METAR-TAF:

METAR-TAF

Lentoasemat :

Municipal

Tunica, Mississippi, Yhdysvallat

Leveyspiiri: 34-41-06N, Pituuspiiri: 090-20-52W, korkeus merenpinnasta: 59 m

Tämänhetkinen sää

Tämä raportti tehtiin 15 minuuttia sitten, kello 00.35 UTC
Tuuli 3 kn pohjoisesta/koillisesta
Lämpötila 12°C
Kosteus 100%
Ilmanpaine 1016 hPa
Näkyvyys: 6.4 km
Hajanaisia pilviä 500 ft:n korkeudessa
Hajanaisia pilviä 9500 ft:n korkeudessa

METAR: KUTA 280035Z AUTO 03003KT 4SM SCT005 SCT095 12/12 A3000 RMK AO2 TSNO

Aika: 18:50 (00:50 UTC)


TAF: puuttuu

Säähavainnot ja -ennusteet yli 4000 lentoasemalta (METAR- ja TAF-raportit).

Käytössä olevat sääasemat on merkitty karttaan keltaisilla ja punaisilla pisteillä.

Aseta hiiri pisteen päälle nähdäksesi sääaseman nimen.

Klikkaa sitten nähdäksesi säähavainnot ja -ennusteet.

Kartan vaihtaminen: klikkaa mustalla rastilla varustettuja vihreitä pisteitä, niin voit zoomata sisään; viivalla varustettua vihreää pistettä, niin voit zoomata ulos tai vihreitä nuolia, niin pääset viereisille kartoille.


METAR-TAF: